sensor_id;sensor_type;location;lat;lon;timestamp;pressure;altitude;pressure_sealevel;temperature;humidity
11808;BME280;5961;42.640;23.380;2022-09-16T00:00:30;93595.31;;;24.72;48.14
11808;BME280;5961;42.640;23.380;2022-09-16T00:02:57;93600.13;;;24.80;48.32
11808;BME280;5961;42.640;23.380;2022-09-16T00:05:24;93543.97;;;24.48;48.30
11808;BME280;5961;42.640;23.380;2022-09-16T00:07:51;93593.47;;;24.69;48.89
11808;BME280;5961;42.640;23.380;2022-09-16T00:10:17;93610.31;;;24.76;48.54
11808;BME280;5961;42.640;23.380;2022-09-16T00:12:45;93588.34;;;24.71;49.03
11808;BME280;5961;42.640;23.380;2022-09-16T00:15:12;93582.47;;;24.60;49.15
11808;BME280;5961;42.640;23.380;2022-09-16T00:17:40;93601.06;;;24.61;49.03
11808;BME280;5961;42.640;23.380;2022-09-16T00:20:08;93584.56;;;24.39;49.41
11808;BME280;5961;42.640;23.380;2022-09-16T00:22:35;93551.22;;;24.10;49.51
11808;BME280;5961;42.640;23.380;2022-09-16T00:25:02;93587.28;;;24.39;49.71
11808;BME280;5961;42.640;23.380;2022-09-16T00:27:29;93586.34;;;24.46;50.04
11808;BME280;5961;42.640;23.380;2022-09-16T00:29:55;93608.31;;;24.51;49.31
11808;BME280;5961;42.640;23.380;2022-09-16T00:32:22;93609.16;;;24.48;49.40
11808;BME280;5961;42.640;23.380;2022-09-16T00:34:51;93595.25;;;24.46;49.89
11808;BME280;5961;42.640;23.380;2022-09-16T00:37:18;93587.84;;;24.34;49.79
11808;BME280;5961;42.640;23.380;2022-09-16T00:39:46;93533.09;;;24.07;49.52
11808;BME280;5961;42.640;23.380;2022-09-16T00:42:13;93589.59;;;24.41;49.52
11808;BME280;5961;42.640;23.380;2022-09-16T00:44:55;93598.69;;;24.34;50.32
11808;BME280;5961;42.640;23.380;2022-09-16T00:47:26;93513.41;;;23.74;50.75
11808;BME280;5961;42.640;23.380;2022-09-16T00:49:57;93601.59;;;24.27;50.71
11808;BME280;5961;42.640;23.380;2022-09-16T00:52:26;93603.22;;;24.25;51.32
11808;BME280;5961;42.640;23.380;2022-09-16T00:54:54;93597.47;;;24.23;51.09
11808;BME280;5961;42.640;23.380;2022-09-16T00:57:21;93592.53;;;24.18;50.55
11808;BME280;5961;42.640;23.380;2022-09-16T00:59:52;93613.31;;;24.24;50.39
11808;BME280;5961;42.640;23.380;2022-09-16T01:02:20;93607.56;;;24.22;50.88
11808;BME280;5961;42.640;23.380;2022-09-16T01:04:51;93613.00;;;24.22;51.20
11808;BME280;5961;42.640;23.380;2022-09-16T01:07:25;93597.38;;;24.10;51.05
11808;BME280;5961;42.640;23.380;2022-09-16T01:09:52;93605.16;;;24.24;51.12
11808;BME280;5961;42.640;23.380;2022-09-16T01:12:20;93595.94;;;24.22;51.89
11808;BME280;5961;42.640;23.380;2022-09-16T01:14:47;93617.25;;;24.23;51.09
11808;BME280;5961;42.640;23.380;2022-09-16T01:17:26;93616.88;;;24.21;50.66
11808;BME280;5961;42.640;23.380;2022-09-16T01:20:09;93606.56;;;24.16;50.91
11808;BME280;5961;42.640;23.380;2022-09-16T01:23:00;93616.38;;;24.10;51.45
11808;BME280;5961;42.640;23.380;2022-09-16T01:25:44;93616.56;;;24.03;51.40
11808;BME280;5961;42.640;23.380;2022-09-16T01:31:22;93628.97;;;23.88;52.00
11808;BME280;5961;42.640;23.380;2022-09-16T01:33:58;93613.28;;;23.79;52.48
11808;BME280;5961;42.640;23.380;2022-09-16T01:36:36;93614.53;;;23.91;52.58
11808;BME280;5961;42.640;23.380;2022-09-16T01:39:11;93606.41;;;23.91;52.27
11808;BME280;5961;42.640;23.380;2022-09-16T01:42:00;93588.25;;;23.88;52.32
11808;BME280;5961;42.640;23.380;2022-09-16T01:44:34;93593.69;;;23.88;52.34
11808;BME280;5961;42.640;23.380;2022-09-16T01:47:12;93600.19;;;23.90;52.01
11808;BME280;5961;42.640;23.380;2022-09-16T01:49:45;93591.16;;;23.81;52.26
11808;BME280;5961;42.640;23.380;2022-09-16T01:52:22;93615.38;;;23.88;52.29
11808;BME280;5961;42.640;23.380;2022-09-16T01:54:55;93592.19;;;23.87;52.58
11808;BME280;5961;42.640;23.380;2022-09-16T01:57:29;93573.53;;;23.73;52.83
11808;BME280;5961;42.640;23.380;2022-09-16T02:00:03;93612.69;;;23.88;52.95
11808;BME280;5961;42.640;23.380;2022-09-16T02:02:35;93601.50;;;23.86;52.76
11808;BME280;5961;42.640;23.380;2022-09-16T02:05:08;93601.81;;;23.88;52.64
11808;BME280;5961;42.640;23.380;2022-09-16T02:07:39;93604.22;;;23.86;53.04
11808;BME280;5961;42.640;23.380;2022-09-16T02:10:14;93585.97;;;23.86;52.90
11808;BME280;5961;42.640;23.380;2022-09-16T02:12:45;93589.47;;;23.87;53.27
11808;BME280;5961;42.640;23.380;2022-09-16T02:15:17;93567.94;;;23.80;53.13
11808;BME280;5961;42.640;23.380;2022-09-16T02:17:51;93546.84;;;23.71;53.25
11808;BME280;5961;42.640;23.380;2022-09-16T02:20:24;93580.31;;;23.81;52.86
11808;BME280;5961;42.640;23.380;2022-09-16T02:22:55;93543.66;;;23.44;52.88
11808;BME280;5961;42.640;23.380;2022-09-16T02:25:24;93592.19;;;23.87;52.77
11808;BME280;5961;42.640;23.380;2022-09-16T02:27:53;93596.44;;;23.72;53.00
11808;BME280;5961;42.640;23.380;2022-09-16T02:30:21;93587.94;;;23.70;53.87
11808;BME280;5961;42.640;23.380;2022-09-16T02:32:52;93591.34;;;23.58;54.61
11808;BME280;5961;42.640;23.380;2022-09-16T02:35:23;93558.19;;;23.34;54.32
11808;BME280;5961;42.640;23.380;2022-09-16T02:37:55;93570.00;;;23.43;54.44
11808;BME280;5961;42.640;23.380;2022-09-16T02:40:25;93607.22;;;23.59;54.61
11808;BME280;5961;42.640;23.380;2022-09-16T02:42:52;93603.41;;;23.57;54.39
11808;BME280;5961;42.640;23.380;2022-09-16T02:45:22;93605.75;;;23.55;54.69
11808;BME280;5961;42.640;23.380;2022-09-16T02:47:59;93602.19;;;23.58;54.57
11808;BME280;5961;42.640;23.380;2022-09-16T02:50:34;93610.78;;;23.56;53.93
11808;BME280;5961;42.640;23.380;2022-09-16T02:53:10;93604.56;;;23.56;53.99
11808;BME280;5961;42.640;23.380;2022-09-16T02:55:47;93606.97;;;23.54;53.77
11808;BME280;5961;42.640;23.380;2022-09-16T02:58:16;93597.63;;;23.55;53.72
11808;BME280;5961;42.640;23.380;2022-09-16T03:00:46;93606.09;;;23.57;53.89
11808;BME280;5961;42.640;23.380;2022-09-16T03:03:15;93607.13;;;23.46;53.76
11808;BME280;5961;42.640;23.380;2022-09-16T03:06:02;93615.94;;;23.51;54.11
11808;BME280;5961;42.640;23.380;2022-09-16T03:08:32;93611.84;;;23.42;54.15
11808;BME280;5961;42.640;23.380;2022-09-16T03:11:04;93619.66;;;23.40;54.04
11808;BME280;5961;42.640;23.380;2022-09-16T03:13:37;93606.59;;;23.35;53.90
11808;BME280;5961;42.640;23.380;2022-09-16T03:16:10;93626.63;;;23.41;54.00
11808;BME280;5961;42.640;23.380;2022-09-16T03:18:50;93633.47;;;23.46;54.04
11808;BME280;5961;42.640;23.380;2022-09-16T03:21:27;93625.78;;;23.44;53.38
11808;BME280;5961;42.640;23.380;2022-09-16T03:24:07;93635.41;;;23.45;53.54
11808;BME280;5961;42.640;23.380;2022-09-16T03:26:43;93643.41;;;23.53;53.87
11808;BME280;5961;42.640;23.380;2022-09-16T03:29:17;93628.22;;;23.55;53.53
11808;BME280;5961;42.640;23.380;2022-09-16T03:31:48;93620.00;;;23.59;52.81
11808;BME280;5961;42.640;23.380;2022-09-16T03:34:22;93645.66;;;23.54;54.31
11808;BME280;5961;42.640;23.380;2022-09-16T03:36:55;93588.00;;;23.34;53.58
11808;BME280;5961;42.640;23.380;2022-09-16T03:39:24;93621.63;;;23.56;53.61
11808;BME280;5961;42.640;23.380;2022-09-16T03:41:51;93620.00;;;23.59;53.61
11808;BME280;5961;42.640;23.380;2022-09-16T03:44:19;93616.53;;;23.58;54.25
11808;BME280;5961;42.640;23.380;2022-09-16T03:46:46;93610.69;;;23.60;54.51
11808;BME280;5961;42.640;23.380;2022-09-16T03:49:13;93589.06;;;23.56;54.12
11808;BME280;5961;42.640;23.380;2022-09-16T03:51:41;93585.50;;;23.59;54.50
11808;BME280;5961;42.640;23.380;2022-09-16T03:54:08;93602.88;;;23.62;54.17
11808;BME280;5961;42.640;23.380;2022-09-16T03:56:35;93603.19;;;23.64;54.45
11808;BME280;5961;42.640;23.380;2022-09-16T03:59:01;93564.38;;;23.34;54.59
11808;BME280;5961;42.640;23.380;2022-09-16T04:01:28;93598.13;;;23.66;54.39
11808;BME280;5961;42.640;23.380;2022-09-16T04:03:55;93589.63;;;23.64;55.06
11808;BME280;5961;42.640;23.380;2022-09-16T04:06:22;93596.94;;;23.67;55.15
11808;BME280;5961;42.640;23.380;2022-09-16T04:08:50;93605.25;;;23.60;55.46
11808;BME280;5961;42.640;23.380;2022-09-16T04:11:18;93582.09;;;23.39;55.25
11808;BME280;5961;42.640;23.380;2022-09-16T04:13:44;93618.53;;;23.54;55.23
11808;BME280;5961;42.640;23.380;2022-09-16T04:16:17;93641.69;;;23.59;54.91
11808;BME280;5961;42.640;23.380;2022-09-16T04:18:44;93642.56;;;23.56;54.88
11808;BME280;5961;42.640;23.380;2022-09-16T04:21:11;93625.41;;;23.42;54.34
11808;BME280;5961;42.640;23.380;2022-09-16T04:23:37;93645.00;;;23.50;54.51
11808;BME280;5961;42.640;23.380;2022-09-16T04:26:05;93653.22;;;23.46;54.82
11808;BME280;5961;42.640;23.380;2022-09-16T04:28:33;93664.00;;;23.50;55.04
11808;BME280;5961;42.640;23.380;2022-09-16T04:31:00;93662.22;;;23.43;55.30
11808;BME280;5961;42.640;23.380;2022-09-16T04:33:28;93662.13;;;23.47;55.38
11808;BME280;5961;42.640;23.380;2022-09-16T04:36:01;93666.53;;;23.41;56.13
11808;BME280;5961;42.640;23.380;2022-09-16T04:38:28;93655.53;;;23.28;56.14
11808;BME280;5961;42.640;23.380;2022-09-16T04:40:59;93651.81;;;23.22;56.60
11808;BME280;5961;42.640;23.380;2022-09-16T04:43:27;93637.22;;;23.16;56.16
11808;BME280;5961;42.640;23.380;2022-09-16T04:45:54;93650.44;;;23.14;55.54
11808;BME280;5961;42.640;23.380;2022-09-16T04:48:21;93655.78;;;23.18;56.83
11808;BME280;5961;42.640;23.380;2022-09-16T04:50:49;93644.41;;;23.07;56.21
11808;BME280;5961;42.640;23.380;2022-09-16T04:53:16;93661.44;;;23.07;56.04
11808;BME280;5961;42.640;23.380;2022-09-16T04:55:43;93656.78;;;23.08;55.56
11808;BME280;5961;42.640;23.380;2022-09-16T04:58:10;93662.97;;;23.08;55.36
11808;BME280;5961;42.640;23.380;2022-09-16T05:00:39;93656.00;;;23.07;55.45
11808;BME280;5961;42.640;23.380;2022-09-16T05:03:06;93658.97;;;23.13;55.46
11808;BME280;5961;42.640;23.380;2022-09-16T05:05:33;93655.09;;;23.14;55.85
11808;BME280;5961;42.640;23.380;2022-09-16T05:08:00;93652.59;;;23.03;56.04
11808;BME280;5961;42.640;23.380;2022-09-16T05:10:27;93653.81;;;23.02;55.65
11808;BME280;5961;42.640;23.380;2022-09-16T05:12:54;93657.69;;;23.01;54.96
11808;BME280;5961;42.640;23.380;2022-09-16T05:15:20;93661.25;;;22.98;56.29
11808;BME280;5961;42.640;23.380;2022-09-16T05:17:48;93655.88;;;22.94;56.03
11808;BME280;5961;42.640;23.380;2022-09-16T05:20:15;93634.19;;;22.78;56.26
11808;BME280;5961;42.640;23.380;2022-09-16T05:22:42;93648.84;;;22.97;56.29
11808;BME280;5961;42.640;23.380;2022-09-16T05:25:09;93644.47;;;23.03;55.29
11808;BME280;5961;42.640;23.380;2022-09-16T05:27:36;93633.56;;;23.07;55.09
11808;BME280;5961;42.640;23.380;2022-09-16T05:30:03;93630.25;;;23.15;54.85
11808;BME280;5961;42.640;23.380;2022-09-16T05:32:30;93628.75;;;23.14;55.23
11808;BME280;5961;42.640;23.380;2022-09-16T05:34:58;93625.13;;;23.21;54.94
11808;BME280;5961;42.640;23.380;2022-09-16T05:37:25;93630.81;;;23.26;55.21
11808;BME280;5961;42.640;23.380;2022-09-16T05:39:52;93628.34;;;23.32;54.50
11808;BME280;5961;42.640;23.380;2022-09-16T05:42:19;93634.41;;;23.39;54.00
11808;BME280;5961;42.640;23.380;2022-09-16T05:44:46;93625.13;;;23.37;53.74
11808;BME280;5961;42.640;23.380;2022-09-16T05:47:12;93627.44;;;23.55;53.29
11808;BME280;5961;42.640;23.380;2022-09-16T05:49:39;93630.84;;;23.59;53.21
11808;BME280;5961;42.640;23.380;2022-09-16T05:52:07;93591.00;;;23.39;52.34
11808;BME280;5961;42.640;23.380;2022-09-16T05:54:34;93627.53;;;23.67;51.54
11808;BME280;5961;42.640;23.380;2022-09-16T05:57:00;93642.88;;;23.74;51.77
11808;BME280;5961;42.640;23.380;2022-09-16T05:59:29;93641.97;;;23.80;51.59
11808;BME280;5961;42.640;23.380;2022-09-16T06:01:55;93638.47;;;23.80;51.66
11808;BME280;5961;42.640;23.380;2022-09-16T06:04:22;93629.72;;;23.88;51.34
11808;BME280;5961;42.640;23.380;2022-09-16T06:06:49;93621.19;;;23.90;51.27
11808;BME280;5961;42.640;23.380;2022-09-16T06:09:19;93622.59;;;23.94;51.87
11808;BME280;5961;42.640;23.380;2022-09-16T06:11:47;93632.28;;;23.95;51.51
11808;BME280;5961;42.640;23.380;2022-09-16T06:14:16;93639.81;;;24.04;49.30
11808;BME280;5961;42.640;23.380;2022-09-16T06:16:43;93629.81;;;24.01;50.89
11808;BME280;5961;42.640;23.380;2022-09-16T06:19:11;93614.69;;;24.00;51.05
11808;BME280;5961;42.640;23.380;2022-09-16T06:21:39;93615.06;;;24.02;50.82
11808;BME280;5961;42.640;23.380;2022-09-16T06:24:06;93628.28;;;24.16;50.58
11808;BME280;5961;42.640;23.380;2022-09-16T06:26:36;93618.84;;;24.21;49.90
11808;BME280;5961;42.640;23.380;2022-09-16T06:29:03;93624.19;;;24.24;49.63
11808;BME280;5961;42.640;23.380;2022-09-16T06:33:57;93617.03;;;24.30;49.41
11808;BME280;5961;42.640;23.380;2022-09-16T06:36:27;93616.53;;;24.35;48.82
11808;BME280;5961;42.640;23.380;2022-09-16T06:38:54;93623.28;;;24.43;48.83
11808;BME280;5961;42.640;23.380;2022-09-16T06:41:21;93586.16;;;24.24;48.56
11808;BME280;5961;42.640;23.380;2022-09-16T06:43:50;93614.91;;;24.38;48.18
11808;BME280;5961;42.640;23.380;2022-09-16T06:46:18;93622.31;;;24.50;48.31
11808;BME280;5961;42.640;23.380;2022-09-16T06:48:48;93634.31;;;24.65;47.82
11808;BME280;5961;42.640;23.380;2022-09-16T06:51:18;93635.75;;;24.70;48.14
11808;BME280;5961;42.640;23.380;2022-09-16T06:53:47;93636.72;;;24.76;48.09
11808;BME280;5961;42.640;23.380;2022-09-16T06:56:16;93633.53;;;24.81;47.69
11808;BME280;5961;42.640;23.380;2022-09-16T06:58:45;93638.09;;;24.84;47.50
11808;BME280;5961;42.640;23.380;2022-09-16T07:01:16;93636.03;;;24.88;47.68
11808;BME280;5961;42.640;23.380;2022-09-16T07:03:47;93634.94;;;24.85;47.81
11808;BME280;5961;42.640;23.380;2022-09-16T07:06:15;93636.03;;;24.88;47.88
11808;BME280;5961;42.640;23.380;2022-09-16T07:08:42;93642.00;;;24.83;47.00
11808;BME280;5961;42.640;23.380;2022-09-16T07:11:11;93616.50;;;24.64;47.16
11808;BME280;5961;42.640;23.380;2022-09-16T07:13:38;93645.41;;;24.87;47.23
11808;BME280;5961;42.640;23.380;2022-09-16T07:16:06;93641.47;;;24.88;47.20
11808;BME280;5961;42.640;23.380;2022-09-16T07:18:35;93648.34;;;24.92;47.27
11808;BME280;5961;42.640;23.380;2022-09-16T07:21:02;93640.09;;;24.96;46.88
11808;BME280;5961;42.640;23.380;2022-09-16T07:23:30;93635.28;;;25.00;46.85
11808;BME280;5961;42.640;23.380;2022-09-16T07:26:02;93648.13;;;24.99;46.79
11808;BME280;5961;42.640;23.380;2022-09-16T07:28:29;93613.97;;;24.98;46.69
11808;BME280;5961;42.640;23.380;2022-09-16T07:30:55;93642.69;;;25.12;46.64
11808;BME280;5961;42.640;23.380;2022-09-16T07:33:25;93636.72;;;25.17;46.23
11808;BME280;5961;42.640;23.380;2022-09-16T07:35:57;93621.50;;;25.20;46.53
11808;BME280;5961;42.640;23.380;2022-09-16T07:38:23;93623.13;;;25.30;46.59
11808;BME280;5961;42.640;23.380;2022-09-16T07:40:50;93623.78;;;25.34;46.58
11808;BME280;5961;42.640;23.380;2022-09-16T07:43:17;93622.50;;;25.38;46.19
11808;BME280;5961;42.640;23.380;2022-09-16T07:45:43;93606.81;;;25.42;46.38
11808;BME280;5961;42.640;23.380;2022-09-16T07:48:10;93601.69;;;25.44;45.89
11808;BME280;5961;42.640;23.380;2022-09-16T07:50:37;93587.88;;;25.39;45.80
11808;BME280;5961;42.640;23.380;2022-09-16T07:53:05;93574.25;;;25.39;45.82
11808;BME280;5961;42.640;23.380;2022-09-16T07:55:33;93590.69;;;25.48;46.52
11808;BME280;5961;42.640;23.380;2022-09-16T07:58:00;93588.97;;;25.54;46.14
11808;BME280;5961;42.640;23.380;2022-09-16T08:00:27;93607.13;;;25.70;46.42
11808;BME280;5961;42.640;23.380;2022-09-16T08:02:55;93606.25;;;25.73;46.34
11808;BME280;5961;42.640;23.380;2022-09-16T08:05:22;93592.22;;;25.74;46.25
11808;BME280;5961;42.640;23.380;2022-09-16T08:07:49;93588.06;;;25.82;45.84
11808;BME280;5961;42.640;23.380;2022-09-16T08:10:17;93593.38;;;25.86;45.22
11808;BME280;5961;42.640;23.380;2022-09-16T08:12:46;93588.91;;;25.92;45.68
11808;BME280;5961;42.640;23.380;2022-09-16T08:15:12;93581.34;;;25.96;45.47
11808;BME280;5961;42.640;23.380;2022-09-16T08:17:39;93602.13;;;26.02;45.47
11808;BME280;5961;42.640;23.380;2022-09-16T08:20:06;93581.78;;;26.07;45.33
11808;BME280;5961;42.640;23.380;2022-09-16T08:22:33;93564.13;;;25.99;45.63
11808;BME280;5961;42.640;23.380;2022-09-16T08:25:00;93581.97;;;26.12;45.24
11808;BME280;5961;42.640;23.380;2022-09-16T08:27:28;93575.19;;;26.17;45.92
11808;BME280;5961;42.640;23.380;2022-09-16T08:29:55;93569.41;;;26.28;45.83
11808;BME280;5961;42.640;23.380;2022-09-16T08:32:21;93575.81;;;26.34;46.01
11808;BME280;5961;42.640;23.380;2022-09-16T08:34:48;93579.91;;;26.38;45.09
11808;BME280;5961;42.640;23.380;2022-09-16T08:37:15;93581.75;;;26.41;44.89
11808;BME280;5961;42.640;23.380;2022-09-16T08:39:41;93587.41;;;26.47;44.79
11808;BME280;5961;42.640;23.380;2022-09-16T08:45:19;93563.69;;;26.56;44.82
11808;BME280;5961;42.640;23.380;2022-09-16T08:47:54;93567.03;;;26.60;45.36
11808;BME280;5961;42.640;23.380;2022-09-16T08:50:29;93563.44;;;26.63;44.77
11808;BME280;5961;42.640;23.380;2022-09-16T08:52:59;93545.53;;;26.62;44.37
11808;BME280;5961;42.640;23.380;2022-09-16T08:55:30;93553.47;;;26.69;45.21
11808;BME280;5961;42.640;23.380;2022-09-16T08:58:01;93547.44;;;26.74;44.90
11808;BME280;5961;42.640;23.380;2022-09-16T09:00:30;93552.00;;;26.78;44.53
11808;BME280;5961;42.640;23.380;2022-09-16T09:03:09;93537.28;;;26.75;43.96
11808;BME280;5961;42.640;23.380;2022-09-16T09:05:46;93550.09;;;26.87;43.72
11808;BME280;5961;42.640;23.380;2022-09-16T09:08:31;93555.44;;;26.91;43.62
11808;BME280;5961;42.640;23.380;2022-09-16T09:11:05;93563.00;;;26.96;43.69
11808;BME280;5961;42.640;23.380;2022-09-16T09:13:47;93574.69;;;26.96;44.05
11808;BME280;5961;42.640;23.380;2022-09-16T09:16:34;93559.25;;;27.02;43.89
11808;BME280;5961;42.640;23.380;2022-09-16T09:19:20;93561.84;;;27.06;43.83
11808;BME280;5961;42.640;23.380;2022-09-16T09:21:56;93570.97;;;27.12;44.30
11808;BME280;5961;42.640;23.380;2022-09-16T09:24:33;93579.47;;;27.14;44.02
11808;BME280;5961;42.640;23.380;2022-09-16T09:27:13;93520.50;;;26.77;43.74
11808;BME280;5961;42.640;23.380;2022-09-16T09:29:57;93563.84;;;27.14;43.52
11808;BME280;5961;42.640;23.380;2022-09-16T09:32:37;93557.63;;;27.14;43.44
11808;BME280;5961;42.640;23.380;2022-09-16T09:35:21;93547.19;;;27.12;43.65
11808;BME280;5961;42.640;23.380;2022-09-16T09:40:48;93553.09;;;27.11;44.39
11808;BME280;5961;42.640;23.380;2022-09-16T09:43:19;93550.06;;;27.09;44.26
11808;BME280;5961;42.640;23.380;2022-09-16T09:45:57;93557.16;;;27.06;44.23
11808;BME280;5961;42.640;23.380;2022-09-16T09:48:31;93554.88;;;27.05;43.61
11808;BME280;5961;42.640;23.380;2022-09-16T09:51:04;93564.72;;;27.02;44.54
11808;BME280;5961;42.640;23.380;2022-09-16T09:53:35;93572.59;;;27.00;44.71
11808;BME280;5961;42.640;23.380;2022-09-16T09:56:13;93564.81;;;26.90;44.67
11808;BME280;5961;42.640;23.380;2022-09-16T09:58:45;93571.41;;;27.01;44.36
11808;BME280;5961;42.640;23.380;2022-09-16T10:01:14;93570.91;;;26.94;44.48
11808;BME280;5961;42.640;23.380;2022-09-16T10:03:42;93576.97;;;26.98;44.13
11808;BME280;5961;42.640;23.380;2022-09-16T10:06:10;93590.63;;;26.98;44.49
11808;BME280;5961;42.640;23.380;2022-09-16T10:08:44;93585.25;;;26.85;44.74
11808;BME280;5961;42.640;23.380;2022-09-16T10:11:17;93605.56;;;26.93;44.75
11808;BME280;5961;42.640;23.380;2022-09-16T10:13:48;93592.16;;;26.77;45.28
11808;BME280;5961;42.640;23.380;2022-09-16T10:16:18;93624.41;;;26.79;45.64
11808;BME280;5961;42.640;23.380;2022-09-16T10:18:55;93631.88;;;26.65;46.28
11808;BME280;5961;42.640;23.380;2022-09-16T10:21:22;93645.66;;;26.62;47.22
11808;BME280;5961;42.640;23.380;2022-09-16T10:23:53;93702.75;;;26.44;48.47
11808;BME280;5961;42.640;23.380;2022-09-16T10:26:21;93709.00;;;26.19;49.11
11808;BME280;5961;42.640;23.380;2022-09-16T10:28:56;93696.66;;;26.14;50.13
11808;BME280;5961;42.640;23.380;2022-09-16T10:31:25;93709.56;;;25.89;53.10
11808;BME280;5961;42.640;23.380;2022-09-16T10:33:54;93733.97;;;25.67;56.76
11808;BME280;5961;42.640;23.380;2022-09-16T10:36:22;93672.44;;;24.90;60.63
11808;BME280;5961;42.640;23.380;2022-09-16T10:38:53;93743.56;;;24.89;64.24
11808;BME280;5961;42.640;23.380;2022-09-16T10:41:21;93689.44;;;24.04;65.51
11808;BME280;5961;42.640;23.380;2022-09-16T10:43:50;93798.28;;;24.10;65.46
11808;BME280;5961;42.640;23.380;2022-09-16T10:46:17;93807.75;;;23.86;66.04
11808;BME280;5961;42.640;23.380;2022-09-16T10:48:45;93810.84;;;23.68;68.71
11808;BME280;5961;42.640;23.380;2022-09-16T10:51:21;93774.78;;;23.12;68.50
11808;BME280;5961;42.640;23.380;2022-09-16T10:53:52;93858.47;;;23.10;70.62
11808;BME280;5961;42.640;23.380;2022-09-16T10:56:21;93793.69;;;22.96;71.76
11808;BME280;5961;42.640;23.380;2022-09-16T10:58:48;93761.84;;;22.80;73.16
11808;BME280;5961;42.640;23.380;2022-09-16T11:01:27;93766.03;;;22.62;75.26
11808;BME280;5961;42.640;23.380;2022-09-16T11:04:21;93740.88;;;22.41;73.96
11808;BME280;5961;42.640;23.380;2022-09-16T11:07:01;93745.28;;;22.32;71.10
11808;BME280;5961;42.640;23.380;2022-09-16T11:09:34;93730.88;;;22.38;72.08
11808;BME280;5961;42.640;23.380;2022-09-16T11:12:28;93686.34;;;22.39;70.50
11808;BME280;5961;42.640;23.380;2022-09-16T11:15:02;93677.53;;;22.35;69.81
11808;BME280;5961;42.640;23.380;2022-09-16T11:17:47;93656.09;;;22.64;68.45
11808;BME280;5961;42.640;23.380;2022-09-16T11:20:32;93663.44;;;22.64;67.06
11808;BME280;5961;42.640;23.380;2022-09-16T11:23:07;93642.56;;;22.84;67.57
11808;BME280;5961;42.640;23.380;2022-09-16T11:25:45;93630.97;;;23.19;62.92
11808;BME280;5961;42.640;23.380;2022-09-16T11:28:38;93585.91;;;23.25;58.56
11808;BME280;5961;42.640;23.380;2022-09-16T11:31:14;93639.31;;;23.61;57.65
11808;BME280;5961;42.640;23.380;2022-09-16T11:33:48;93566.59;;;23.39;56.80
11808;BME280;5961;42.640;23.380;2022-09-16T11:36:33;93602.25;;;23.86;53.18
11808;BME280;5961;42.640;23.380;2022-09-16T11:39:13;93581.09;;;24.10;52.81
11808;BME280;5961;42.640;23.380;2022-09-16T11:41:51;93599.00;;;24.65;52.41
11808;BME280;5961;42.640;23.380;2022-09-16T11:44:41;93597.88;;;25.04;51.94
11808;BME280;5961;42.640;23.380;2022-09-16T11:47:33;93584.72;;;25.40;51.15
11808;BME280;5961;42.640;23.380;2022-09-16T11:50:16;93593.06;;;25.84;50.79
11808;BME280;5961;42.640;23.380;2022-09-16T11:52:56;93575.09;;;26.21;51.29
11808;BME280;5961;42.640;23.380;2022-09-16T11:55:37;93567.88;;;26.48;51.46
11808;BME280;5961;42.640;23.380;2022-09-16T11:58:17;93578.38;;;26.81;50.60
11808;BME280;5961;42.640;23.380;2022-09-16T12:00:47;93576.09;;;27.01;48.68
11808;BME280;5961;42.640;23.380;2022-09-16T12:03:22;93568.25;;;27.12;56.59
11808;BME280;5961;42.640;23.380;2022-09-16T12:05:52;93571.19;;;27.26;56.96
11808;BME280;5961;42.640;23.380;2022-09-16T12:08:29;93552.50;;;27.16;53.20
11808;BME280;5961;42.640;23.380;2022-09-16T12:11:01;93556.59;;;27.20;52.37
11808;BME280;5961;42.640;23.380;2022-09-16T12:13:33;93561.38;;;27.38;51.35
11808;BME280;5961;42.640;23.380;2022-09-16T12:16:04;93530.72;;;27.25;47.96
11808;BME280;5961;42.640;23.380;2022-09-16T12:18:36;93582.06;;;27.48;46.90
11808;BME280;5961;42.640;23.380;2022-09-16T12:21:09;93581.44;;;27.44;48.00
11808;BME280;5961;42.640;23.380;2022-09-16T12:23:41;93583.72;;;27.46;48.04
11808;BME280;5961;42.640;23.380;2022-09-16T12:26:13;93589.88;;;27.37;49.15
11808;BME280;5961;42.640;23.380;2022-09-16T12:28:44;93582.72;;;27.31;46.97
11808;BME280;5961;42.640;23.380;2022-09-16T12:31:16;93590.38;;;27.14;49.50
11808;BME280;5961;42.640;23.380;2022-09-16T12:33:48;93582.44;;;26.98;51.18
11808;BME280;5961;42.640;23.380;2022-09-16T12:36:21;93586.94;;;26.70;52.25
11808;BME280;5961;42.640;23.380;2022-09-16T12:38:50;93593.09;;;26.40;54.96
11808;BME280;5961;42.640;23.380;2022-09-16T12:41:32;93592.19;;;26.21;57.42
11808;BME280;5961;42.640;23.380;2022-09-16T12:47:21;93629.41;;;25.90;61.47
11808;BME280;5961;42.640;23.380;2022-09-16T12:50:22;93625.66;;;25.75;65.14
11808;BME280;5961;42.640;23.380;2022-09-16T12:53:15;93644.91;;;25.68;66.98
11808;BME280;5961;42.640;23.380;2022-09-16T12:55:57;93648.72;;;25.57;67.13
11808;BME280;5961;42.640;23.380;2022-09-16T13:01:26;93664.59;;;25.46;67.79
11808;BME280;5961;42.640;23.380;2022-09-16T13:03:56;93669.25;;;25.33;66.60
11808;BME280;5961;42.640;23.380;2022-09-16T13:06:27;93661.66;;;25.28;66.87
11808;BME280;5961;42.640;23.380;2022-09-16T13:09:13;93667.38;;;25.18;67.14
11808;BME280;5961;42.640;23.380;2022-09-16T13:11:41;93687.63;;;25.04;67.56
11808;BME280;5961;42.640;23.380;2022-09-16T13:14:20;93704.13;;;24.97;67.57
11808;BME280;5961;42.640;23.380;2022-09-16T13:16:52;93690.38;;;24.88;68.48
11808;BME280;5961;42.640;23.380;2022-09-16T13:19:44;93696.78;;;24.81;69.92
11808;BME280;5961;42.640;23.380;2022-09-16T13:22:20;93710.78;;;24.80;71.64
11808;BME280;5961;42.640;23.380;2022-09-16T13:24:52;93697.06;;;24.71;72.82
11808;BME280;5961;42.640;23.380;2022-09-16T13:27:32;93698.78;;;24.65;72.41
11808;BME280;5961;42.640;23.380;2022-09-16T13:30:28;93696.31;;;24.54;73.38
11808;BME280;5961;42.640;23.380;2022-09-16T13:33:00;93679.31;;;24.37;74.59
11808;BME280;5961;42.640;23.380;2022-09-16T13:35:37;93686.44;;;24.47;74.08
11808;BME280;5961;42.640;23.380;2022-09-16T13:38:20;93679.03;;;24.48;75.06
11808;BME280;5961;42.640;23.380;2022-09-16T13:40:52;93661.31;;;24.43;77.07